createdAt,value
2022-10-11T00:01:43.898Z,5.33
2022-10-11T00:04:10.481Z,10.13
2022-10-11T00:06:43.243Z,7.00
2022-10-11T00:09:14.743Z,6.90
2022-10-11T00:11:41.205Z,7.17
2022-10-11T00:14:08.193Z,7.33
2022-10-11T00:16:34.972Z,7.07
2022-10-11T00:19:01.488Z,10.77
2022-10-11T00:21:28.126Z,4.87
2022-10-11T00:23:54.681Z,7.20
2022-10-11T00:26:21.264Z,7.00
2022-10-11T00:28:47.979Z,7.87
2022-10-11T00:31:18.585Z,10.60
2022-10-11T00:33:45.490Z,5.77
2022-10-11T00:36:14.768Z,8.27
2022-10-11T00:38:41.484Z,8.87
2022-10-11T00:41:07.973Z,6.10
2022-10-11T00:43:34.665Z,6.23
2022-10-11T00:46:18.393Z,7.13
2022-10-11T00:48:48.719Z,12.10
2022-10-11T00:51:23.425Z,5.60
2022-10-11T00:53:51.017Z,6.17
2022-10-11T00:56:22.418Z,4.53
2022-10-11T00:58:48.927Z,6.13
2022-10-11T01:01:15.572Z,8.33
2022-10-11T01:03:42.254Z,9.53
2022-10-11T01:06:10.216Z,8.73
2022-10-11T01:08:37.300Z,5.07
2022-10-11T01:11:03.830Z,6.03
2022-10-11T01:13:36.696Z,6.77
2022-10-11T01:16:12.573Z,5.03
2022-10-11T01:19:01.546Z,7.87
2022-10-11T01:21:31.028Z,7.23
2022-10-11T01:24:08.518Z,10.87
2022-10-11T01:26:53.353Z,8.43
2022-10-11T01:29:38.266Z,11.37
2022-10-11T01:32:15.430Z,7.37
2022-10-11T01:34:51.413Z,6.07
2022-10-11T01:37:24.240Z,11.47
2022-10-11T01:40:15.984Z,9.17
2022-10-11T01:42:43.469Z,8.23
2022-10-11T01:45:14.231Z,6.47
2022-10-11T01:47:42.657Z,6.93
2022-10-11T01:50:40.217Z,5.70
2022-10-11T01:53:37.259Z,11.60
2022-10-11T01:56:14.184Z,7.97
2022-10-11T01:58:55.253Z,6.00
2022-10-11T02:02:00.230Z,7.70
2022-10-11T02:04:48.272Z,10.53
2022-10-11T02:07:43.087Z,11.00
2022-10-11T02:10:17.400Z,8.30
2022-10-11T02:12:48.727Z,5.67
2022-10-11T02:15:16.861Z,4.70
2022-10-11T02:17:52.824Z,8.10
2022-10-11T02:20:22.084Z,7.53
2022-10-11T02:22:50.541Z,6.80
2022-10-11T02:25:23.380Z,10.30
2022-10-11T02:27:52.226Z,6.77
2022-10-11T02:30:18.841Z,8.27
2022-10-11T02:32:46.738Z,8.10
2022-10-11T02:35:13.706Z,5.57
2022-10-11T02:37:49.552Z,6.43
2022-10-11T02:40:21.573Z,5.10
2022-10-11T02:42:59.584Z,7.07
2022-10-11T02:45:30.682Z,7.40
2022-10-11T02:47:57.834Z,9.83
2022-10-11T02:50:24.519Z,7.57
2022-10-11T02:52:51.138Z,5.63
2022-10-11T02:55:17.821Z,5.80
2022-10-11T02:57:44.538Z,7.83
2022-10-11T03:00:11.754Z,8.27
2022-10-11T03:02:38.300Z,6.63
2022-10-11T03:05:05.232Z,6.17
2022-10-11T03:07:31.706Z,7.93
2022-10-11T03:09:58.198Z,12.30
2022-10-11T03:12:24.706Z,10.07
2022-10-11T03:14:53.124Z,7.47
2022-10-11T03:17:35.699Z,8.37
2022-10-11T03:20:04.730Z,7.07
2022-10-11T03:22:31.234Z,5.43
2022-10-11T03:25:02.710Z,8.17
2022-10-11T03:27:31.018Z,9.77
2022-10-11T03:29:57.974Z,7.33
2022-10-11T03:32:24.819Z,6.37
2022-10-11T03:34:51.309Z,7.53
2022-10-11T03:37:18.387Z,7.10
2022-10-11T03:39:45.824Z,6.37
2022-10-11T03:42:13.445Z,8.03
2022-10-11T03:44:41.592Z,9.23
2022-10-11T03:47:08.505Z,11.67
2022-10-11T03:49:37.722Z,11.97
2022-10-11T03:52:07.910Z,11.50
2022-10-11T03:54:34.380Z,10.63
2022-10-11T03:57:00.930Z,9.23
2022-10-11T03:59:27.499Z,9.53
2022-10-11T04:01:54.241Z,7.67
2022-10-11T04:04:20.882Z,12.50
2022-10-11T04:06:47.511Z,7.33
2022-10-11T04:09:13.998Z,8.87
2022-10-11T04:11:40.624Z,12.17
2022-10-11T04:14:07.266Z,10.50
2022-10-11T04:16:35.393Z,10.50
2022-10-11T04:19:01.880Z,10.47
2022-10-11T04:21:28.401Z,9.67
2022-10-11T04:23:54.818Z,9.03
2022-10-11T04:26:21.446Z,12.90
2022-10-11T04:28:48.136Z,11.17
2022-10-11T04:31:14.797Z,14.37
2022-10-11T04:33:41.373Z,5.67
2022-10-11T04:36:08.785Z,7.13
2022-10-11T04:38:35.579Z,11.57
2022-10-11T04:41:13.406Z,8.00
2022-10-11T04:43:40.201Z,8.97
2022-10-11T04:46:07.362Z,10.53
2022-10-11T04:48:34.075Z,8.23
2022-10-11T04:51:03.875Z,6.07
2022-10-11T04:53:30.582Z,8.00
2022-10-11T04:56:05.411Z,13.47
2022-10-11T04:58:33.678Z,10.13
2022-10-11T05:01:00.548Z,8.30
2022-10-11T05:03:27.675Z,9.93
2022-10-11T05:05:54.294Z,9.67
2022-10-11T05:08:23.291Z,11.70
2022-10-11T05:11:04.099Z,9.63
2022-10-11T05:13:31.855Z,10.33
2022-10-11T05:15:58.475Z,12.30
2022-10-11T05:18:25.350Z,11.60
2022-10-11T05:21:05.693Z,10.67
2022-10-11T05:23:34.183Z,9.00
2022-10-11T05:26:00.814Z,11.63
2022-10-11T05:28:27.973Z,7.30
2022-10-11T05:30:54.959Z,9.50
2022-10-11T05:33:22.021Z,9.57
2022-10-11T05:35:48.584Z,10.88
2022-10-11T05:38:15.538Z,9.03
2022-10-11T05:40:42.081Z,10.50
2022-10-11T05:43:08.823Z,7.17
2022-10-11T05:45:37.271Z,12.63
2022-10-11T05:48:04.233Z,11.10
2022-10-11T05:50:30.954Z,7.73
2022-10-11T05:52:57.515Z,8.60
2022-10-11T05:55:24.120Z,12.07
2022-10-11T05:57:54.912Z,11.03
2022-10-11T06:00:22.276Z,9.23
2022-10-11T06:02:49.080Z,9.33
2022-10-11T06:05:16.234Z,12.93
2022-10-11T06:07:42.710Z,10.30
2022-10-11T06:10:09.739Z,9.17
2022-10-11T06:12:36.449Z,11.13
2022-10-11T06:15:04.491Z,11.80
2022-10-11T06:17:31.221Z,9.97
2022-10-11T06:19:57.679Z,12.23
2022-10-11T06:22:24.227Z,10.60
2022-10-11T06:24:50.881Z,10.87
2022-10-11T06:27:17.394Z,11.50
2022-10-11T06:29:43.974Z,10.90
2022-10-11T06:32:10.564Z,16.33
2022-10-11T06:34:37.001Z,12.37
2022-10-11T06:37:03.601Z,12.23
2022-10-11T06:39:30.134Z,14.10
2022-10-11T06:41:59.257Z,16.00
2022-10-11T06:44:26.409Z,14.13
2022-10-11T06:46:52.950Z,13.10
2022-10-11T06:49:23.247Z,15.13
2022-10-11T06:51:50.626Z,16.53
2022-10-11T06:54:20.258Z,20.83
2022-10-11T06:56:46.901Z,14.87
2022-10-11T06:59:15.142Z,15.20
2022-10-11T07:01:42.664Z,15.17
2022-10-11T07:04:09.476Z,22.90
2022-10-11T07:06:38.613Z,18.23
2022-10-11T07:09:05.407Z,15.77
2022-10-11T07:11:31.921Z,18.43
2022-10-11T07:14:07.985Z,17.13
2022-10-11T07:16:39.312Z,19.77
2022-10-11T07:19:07.599Z,18.40
2022-10-11T07:21:34.845Z,14.73
2022-10-11T07:24:01.942Z,27.10
2022-10-11T07:26:32.461Z,20.67
2022-10-11T07:29:04.252Z,25.53
2022-10-11T07:31:30.923Z,20.37
2022-10-11T07:33:57.611Z,21.83
2022-10-11T07:36:24.263Z,19.57
2022-10-11T07:38:51.003Z,20.43
2022-10-11T07:41:17.602Z,21.03
2022-10-11T07:43:44.257Z,18.37
2022-10-11T07:46:11.530Z,18.97
2022-10-11T07:48:38.792Z,18.50
2022-10-11T07:51:14.441Z,22.50
2022-10-11T07:53:43.111Z,17.27
2022-10-11T07:56:12.525Z,27.87
2022-10-11T07:58:39.999Z,25.47
2022-10-11T08:01:07.433Z,19.57
2022-10-11T08:03:34.347Z,26.13
2022-10-11T08:06:12.148Z,20.63
2022-10-11T08:08:38.605Z,18.50
2022-10-11T08:11:05.913Z,22.23
2022-10-11T08:13:32.742Z,15.53
2022-10-11T08:15:59.663Z,20.90
2022-10-11T08:18:26.216Z,24.03
2022-10-11T08:20:52.788Z,21.97
2022-10-11T08:23:19.780Z,20.80
2022-10-11T08:25:47.414Z,20.77
2022-10-11T08:28:17.418Z,23.10
2022-10-11T08:30:51.868Z,19.60
2022-10-11T08:33:19.664Z,23.33
2022-10-11T08:35:46.363Z,15.43
2022-10-11T08:38:13.099Z,16.57
2022-10-11T08:40:47.126Z,13.63
2022-10-11T08:43:48.279Z,14.60
2022-10-11T08:46:15.800Z,18.00
2022-10-11T08:48:45.689Z,19.10
2022-10-11T08:51:31.409Z,16.27
2022-10-11T08:54:12.260Z,18.67
2022-10-11T08:56:40.099Z,16.60
2022-10-11T08:59:15.769Z,19.03
2022-10-11T09:01:59.457Z,15.03
2022-10-11T09:04:26.182Z,15.83
2022-10-11T09:07:03.848Z,16.30
2022-10-11T09:09:45.703Z,21.40
2022-10-11T09:12:12.322Z,16.97
2022-10-11T09:15:04.055Z,11.30
2022-10-11T09:17:45.593Z,16.23
2022-10-11T09:20:21.147Z,22.50
2022-10-11T09:23:00.052Z,16.23
2022-10-11T09:25:44.373Z,14.00
2022-10-11T09:28:36.611Z,15.93
2022-10-11T09:31:03.268Z,14.83
2022-10-11T09:33:44.280Z,15.33
2022-10-11T09:36:17.411Z,15.77
2022-10-11T09:38:51.307Z,15.13
2022-10-11T09:41:48.559Z,20.13
2022-10-11T09:44:46.813Z,14.30
2022-10-11T09:47:25.153Z,20.07
2022-10-11T09:49:58.426Z,23.00
2022-10-11T09:52:25.411Z,18.47
2022-10-11T09:54:55.032Z,13.90
2022-10-11T09:57:27.502Z,15.73
2022-10-11T10:00:12.213Z,12.53
2022-10-11T10:02:55.471Z,12.00
2022-10-11T10:05:40.150Z,15.60
2022-10-11T10:08:09.681Z,11.60
2022-10-11T10:10:44.541Z,15.10
2022-10-11T10:13:29.918Z,12.60
2022-10-11T10:15:59.118Z,13.70
2022-10-11T10:18:37.643Z,11.07
2022-10-11T10:21:09.791Z,9.87
2022-10-11T10:23:37.584Z,7.97
2022-10-11T10:26:13.464Z,13.23
2022-10-11T10:28:40.470Z,10.33
2022-10-11T10:31:22.128Z,8.10
2022-10-11T10:33:51.044Z,10.37
2022-10-11T10:36:27.992Z,11.67
2022-10-11T10:39:00.360Z,8.83
2022-10-11T10:41:27.003Z,11.77
2022-10-11T10:43:57.265Z,12.07
2022-10-11T10:46:41.595Z,9.20
2022-10-11T10:52:19.719Z,8.93
2022-10-11T10:54:55.666Z,11.97
2022-10-11T10:57:26.372Z,12.67
2022-10-11T11:00:19.689Z,9.33
2022-10-11T11:03:27.963Z,12.87
2022-10-11T11:06:01.895Z,16.77
2022-10-11T11:08:31.629Z,9.73
2022-10-11T11:11:02.230Z,9.23
2022-10-11T11:13:31.835Z,9.07
2022-10-11T11:16:20.392Z,10.20
2022-10-11T11:19:24.328Z,14.23
2022-10-11T11:22:00.643Z,15.80
2022-10-11T11:24:47.229Z,9.93
2022-10-11T11:27:19.725Z,8.47
2022-10-11T11:30:06.421Z,10.80
2022-10-11T11:33:06.916Z,11.50
2022-10-11T11:35:45.247Z,10.60
2022-10-11T11:38:18.583Z,9.47
2022-10-11T11:40:49.895Z,11.27
2022-10-11T11:43:32.769Z,9.47
2022-10-11T11:46:04.629Z,12.80
2022-10-11T11:48:31.190Z,11.63
2022-10-11T11:51:05.647Z,8.60
2022-10-11T11:53:50.829Z,5.70
2022-10-11T11:56:23.489Z,10.13
2022-10-11T11:58:55.733Z,12.00
2022-10-11T12:01:35.982Z,6.83
2022-10-11T12:04:05.634Z,10.53
2022-10-11T12:06:35.926Z,8.03
2022-10-11T12:09:16.641Z,6.77
2022-10-11T12:11:50.297Z,6.37
2022-10-11T12:14:34.626Z,8.07
2022-10-11T12:17:12.301Z,9.83
2022-10-11T12:19:41.511Z,10.67
2022-10-11T12:22:20.233Z,9.00
2022-10-11T12:25:01.050Z,10.10
2022-10-11T12:27:38.560Z,9.83
2022-10-11T12:30:43.614Z,6.90
2022-10-11T12:33:13.402Z,6.07
2022-10-11T12:35:50.328Z,9.50
2022-10-11T12:38:16.992Z,10.63
2022-10-11T12:40:47.033Z,6.50
2022-10-11T12:43:17.457Z,9.67
2022-10-11T12:45:47.941Z,8.43
2022-10-11T12:48:41.128Z,8.80
2022-10-11T12:51:23.076Z,7.33
2022-10-11T12:54:25.344Z,7.20
2022-10-11T12:57:12.014Z,10.87
2022-10-11T12:59:43.497Z,10.60
2022-10-11T13:02:42.667Z,9.70
2022-10-11T13:05:22.245Z,7.33
2022-10-11T13:07:48.980Z,6.60
2022-10-11T13:10:17.065Z,8.97
2022-10-11T13:12:46.539Z,10.07
2022-10-11T13:15:16.048Z,8.30
2022-10-11T13:17:43.010Z,8.07
2022-10-11T13:20:22.011Z,9.73
2022-10-11T13:22:51.033Z,7.87
2022-10-11T13:25:20.843Z,11.43
2022-10-11T13:27:48.421Z,8.93
2022-10-11T13:30:25.548Z,8.00
2022-10-11T13:32:52.785Z,8.77
2022-10-11T13:35:38.523Z,8.43
2022-10-11T13:38:08.853Z,4.53
2022-10-11T13:40:35.649Z,7.13
2022-10-11T13:43:02.469Z,7.53
2022-10-11T13:45:31.938Z,11.47
2022-10-11T13:47:58.638Z,5.73
2022-10-11T13:50:32.026Z,6.77
2022-10-11T13:53:09.461Z,6.93
2022-10-11T13:55:41.950Z,10.03
2022-10-11T13:58:36.241Z,11.30
2022-10-11T14:01:06.119Z,6.30
2022-10-11T14:03:39.576Z,6.13
2022-10-11T14:06:06.798Z,7.00
2022-10-11T14:08:45.173Z,6.63
2022-10-11T14:11:13.272Z,10.47
2022-10-11T14:13:47.034Z,7.40
2022-10-11T14:16:29.355Z,6.70
2022-10-11T14:18:58.987Z,11.10
2022-10-11T14:21:30.662Z,6.10
2022-10-11T14:24:00.249Z,7.87
2022-10-11T14:26:27.912Z,5.43
2022-10-11T14:28:59.056Z,6.43
2022-10-11T14:31:26.320Z,7.57
2022-10-11T14:33:53.855Z,5.73
2022-10-11T14:36:22.768Z,8.27
2022-10-11T14:38:50.607Z,5.87
2022-10-11T14:41:17.299Z,7.13
2022-10-11T14:43:43.832Z,6.23
2022-10-11T14:46:21.070Z,7.13
2022-10-11T14:48:55.588Z,7.30
2022-10-11T14:51:26.487Z,6.47
2022-10-11T14:53:53.227Z,6.87
2022-10-11T14:56:21.678Z,7.53
2022-10-11T14:58:48.725Z,7.20
2022-10-11T15:01:16.771Z,8.07
2022-10-11T15:03:43.409Z,7.23
2022-10-11T15:06:17.755Z,7.80
2022-10-11T15:08:44.342Z,10.17
2022-10-11T15:11:12.411Z,8.87
2022-10-11T15:13:38.945Z,10.87
2022-10-11T15:16:06.031Z,6.57
2022-10-11T15:18:32.851Z,11.33
2022-10-11T15:21:00.540Z,8.10
2022-10-11T15:23:27.133Z,6.37
2022-10-11T15:25:53.630Z,9.90
2022-10-11T15:28:28.589Z,10.33
2022-10-11T15:30:55.999Z,9.00
2022-10-11T15:33:23.349Z,9.73
2022-10-11T15:35:50.509Z,9.63
2022-10-11T15:38:22.150Z,10.13
2022-10-11T15:40:49.928Z,12.67
2022-10-11T15:43:20.768Z,8.83
2022-10-11T15:45:50.458Z,8.20
2022-10-11T15:48:22.109Z,12.40
2022-10-11T15:50:49.884Z,8.63
2022-10-11T15:53:17.850Z,8.97
2022-10-11T15:55:47.282Z,10.37
2022-10-11T15:58:24.756Z,9.80
2022-10-11T16:00:56.305Z,10.67
2022-10-11T16:03:25.503Z,13.80
2022-10-11T16:05:52.977Z,7.90
2022-10-11T16:08:19.631Z,8.27
2022-10-11T16:10:46.229Z,12.10
2022-10-11T16:13:12.999Z,9.80
2022-10-11T16:15:41.161Z,7.57
2022-10-11T16:18:10.651Z,12.20
2022-10-11T16:20:38.849Z,8.80
2022-10-11T16:23:05.680Z,8.10
2022-10-11T16:25:32.338Z,9.80
2022-10-11T16:27:59.265Z,9.67
2022-10-11T16:30:26.317Z,7.47
2022-10-11T16:32:52.993Z,6.53
2022-10-11T16:35:19.854Z,9.17
2022-10-11T16:37:46.705Z,8.47
2022-10-11T16:40:19.814Z,6.77
2022-10-11T16:42:47.467Z,9.90
2022-10-11T16:45:15.350Z,9.83
2022-10-11T16:47:43.173Z,6.80
2022-10-11T16:50:10.791Z,7.40
2022-10-11T16:52:37.419Z,7.50
2022-10-11T16:55:04.383Z,10.33
2022-10-11T16:57:31.105Z,6.53
2022-10-11T16:59:57.764Z,7.63
2022-10-11T17:02:31.317Z,10.10
2022-10-11T17:04:59.008Z,13.70
2022-10-11T17:07:25.820Z,16.50
2022-10-11T17:09:52.417Z,16.53
2022-10-11T17:12:22.609Z,13.77
2022-10-11T17:14:50.253Z,12.83
2022-10-11T17:17:18.355Z,16.27
2022-10-11T17:19:45.702Z,13.27
2022-10-11T17:22:14.191Z,14.63
2022-10-11T17:24:40.866Z,12.33
2022-10-11T17:27:08.022Z,16.13
2022-10-11T17:29:34.899Z,13.53
2022-10-11T17:32:01.775Z,15.87
2022-10-11T17:34:28.335Z,14.63
2022-10-11T17:36:55.013Z,14.10
2022-10-11T17:39:22.587Z,13.03
2022-10-11T17:41:49.732Z,13.50
2022-10-11T17:44:19.223Z,11.87
2022-10-11T17:46:46.522Z,11.60
2022-10-11T17:49:24.280Z,10.67
2022-10-11T17:51:50.760Z,12.13
2022-10-11T17:54:17.638Z,10.27
2022-10-11T17:56:44.116Z,13.57
2022-10-11T17:59:15.899Z,11.87
2022-10-11T18:01:42.790Z,12.10
2022-10-11T18:04:16.489Z,10.80
2022-10-11T18:06:45.285Z,13.33
2022-10-11T18:09:13.504Z,13.80
2022-10-11T18:11:40.311Z,9.53
2022-10-11T18:14:07.120Z,10.73
2022-10-11T18:16:34.864Z,13.70
2022-10-11T18:19:03.371Z,13.83
2022-10-11T18:21:34.340Z,9.70
2022-10-11T18:24:03.600Z,12.20
2022-10-11T18:26:30.872Z,11.20
2022-10-11T18:28:58.499Z,10.40
2022-10-11T18:31:28.001Z,12.40
2022-10-11T18:33:54.627Z,12.20
2022-10-11T18:36:27.207Z,9.70
2022-10-11T18:38:56.217Z,11.43
2022-10-11T18:41:24.268Z,10.27
2022-10-11T18:43:51.588Z,9.10
2022-10-11T18:46:19.596Z,10.97
2022-10-11T18:48:47.818Z,9.73
2022-10-11T18:51:20.462Z,9.43
2022-10-11T18:53:47.933Z,9.00
2022-10-11T18:56:16.041Z,13.23
2022-10-11T18:58:44.235Z,13.77
2022-10-11T19:01:12.667Z,10.63
2022-10-11T19:03:39.389Z,11.90
2022-10-11T19:06:09.276Z,12.43
2022-10-11T19:08:35.930Z,12.93
2022-10-11T19:11:09.189Z,9.30
2022-10-11T19:13:36.305Z,11.50
2022-10-11T19:16:08.513Z,8.63
2022-10-11T19:18:38.290Z,10.63
2022-10-11T19:21:11.691Z,11.73
2022-10-11T19:23:40.652Z,10.67
2022-10-11T19:26:20.928Z,11.63
2022-10-11T19:28:48.516Z,13.57
2022-10-11T19:31:21.023Z,8.83
2022-10-11T19:33:49.770Z,12.87
2022-10-11T19:36:17.243Z,11.70
2022-10-11T19:38:46.854Z,12.43
2022-10-11T19:41:14.810Z,10.63
2022-10-11T19:43:41.827Z,13.70
2022-10-11T19:46:10.503Z,15.50
2022-10-11T19:48:38.289Z,12.83
2022-10-11T19:51:07.108Z,12.37
2022-10-11T19:53:34.020Z,9.10
2022-10-11T19:56:02.315Z,14.70
2022-10-11T19:58:29.317Z,11.17
2022-10-11T20:01:12.190Z,14.73
2022-10-11T20:03:39.353Z,12.37
2022-10-11T20:06:07.897Z,11.40
2022-10-11T20:08:36.038Z,12.43
2022-10-11T20:11:06.180Z,11.63
2022-10-11T20:13:35.080Z,13.23
2022-10-11T20:16:09.144Z,14.43
2022-10-11T20:18:37.674Z,11.50
2022-10-11T20:21:12.010Z,10.53
2022-10-11T20:23:39.828Z,12.93
2022-10-11T20:26:11.212Z,13.10
2022-10-11T20:28:38.277Z,10.50
2022-10-11T20:31:11.728Z,14.37
2022-10-11T20:33:38.311Z,14.37
2022-10-11T20:36:06.872Z,15.97
2022-10-11T20:38:34.976Z,16.07
2022-10-11T20:41:09.563Z,14.87
2022-10-11T20:43:36.514Z,15.40
2022-10-11T20:46:08.531Z,11.43
2022-10-11T20:48:35.923Z,12.33
2022-10-11T20:51:03.471Z,13.70
2022-10-11T20:53:30.125Z,13.43
2022-10-11T20:55:56.874Z,13.77
2022-10-11T20:58:23.705Z,12.00
2022-10-11T21:00:50.433Z,12.07
2022-10-11T21:03:17.673Z,11.83
2022-10-11T21:05:44.649Z,11.03
2022-10-11T21:08:11.284Z,13.83
2022-10-11T21:10:38.266Z,11.93
2022-10-11T21:13:05.101Z,14.17
2022-10-11T21:15:32.354Z,14.83
2022-10-11T21:17:58.951Z,8.57
2022-10-11T21:20:25.585Z,18.67
2022-10-11T21:22:52.093Z,13.80
2022-10-11T21:25:18.707Z,11.20
2022-10-11T21:27:45.299Z,9.20
2022-10-11T21:30:11.833Z,12.37
2022-10-11T21:32:38.371Z,12.20
2022-10-11T21:35:04.924Z,11.17
2022-10-11T21:37:31.597Z,10.77
2022-10-11T21:39:58.298Z,9.63
2022-10-11T21:42:29.276Z,14.30
2022-10-11T21:44:56.142Z,11.20
2022-10-11T21:47:22.709Z,11.27
2022-10-11T21:49:49.235Z,10.70
2022-10-11T21:52:15.884Z,9.97
2022-10-11T21:54:42.342Z,12.97
2022-10-11T21:57:08.967Z,9.27
2022-10-11T21:59:35.484Z,9.20
2022-10-11T22:02:02.394Z,11.67
2022-10-11T22:04:29.070Z,9.13
2022-10-11T22:06:55.613Z,10.70
2022-10-11T22:09:22.132Z,11.83
2022-10-11T22:11:48.654Z,12.93
2022-10-11T22:14:15.330Z,12.50
2022-10-11T22:16:41.895Z,13.93
2022-10-11T22:19:08.428Z,11.63
2022-10-11T22:21:35.361Z,13.47
2022-10-11T22:24:02.003Z,12.63
2022-10-11T22:26:30.609Z,10.00
2022-10-11T22:28:58.617Z,11.20
2022-10-11T22:31:25.165Z,10.93
2022-10-11T22:33:55.534Z,13.77
2022-10-11T22:36:24.223Z,14.30
2022-10-11T22:38:51.524Z,11.17
2022-10-11T22:41:18.093Z,10.13
2022-10-11T22:43:44.538Z,12.53
2022-10-11T22:46:11.419Z,15.03
2022-10-11T22:48:38.206Z,11.63
2022-10-11T22:51:04.741Z,15.70
2022-10-11T22:53:31.427Z,17.80
2022-10-11T22:55:58.031Z,11.10
2022-10-11T22:58:24.569Z,11.87
2022-10-11T23:00:51.066Z,15.17
2022-10-11T23:03:18.310Z,9.00
2022-10-11T23:05:54.161Z,13.00
2022-10-11T23:08:20.633Z,13.03
2022-10-11T23:10:47.161Z,14.60
2022-10-11T23:13:13.594Z,8.27
2022-10-11T23:15:41.013Z,12.03
2022-10-11T23:18:07.627Z,13.20
2022-10-11T23:20:34.099Z,10.50
2022-10-11T23:23:00.599Z,10.87
2022-10-11T23:25:27.175Z,14.33
2022-10-11T23:27:53.804Z,9.23
2022-10-11T23:30:20.261Z,12.20
2022-10-11T23:32:47.189Z,10.47
2022-10-11T23:35:13.775Z,13.53
2022-10-11T23:37:40.412Z,7.63
2022-10-11T23:40:10.359Z,8.77
2022-10-11T23:42:36.854Z,8.00
2022-10-11T23:45:03.904Z,12.17
2022-10-11T23:47:30.474Z,9.50
2022-10-11T23:49:57.252Z,9.53
2022-10-11T23:52:23.759Z,11.13
2022-10-11T23:54:50.373Z,10.10
2022-10-11T23:57:16.998Z,11.33
2022-10-11T23:59:43.457Z,12.37
